Time;durP1;ratioP1;P1;durP2;ratioP2;P2;SDS_P1;SDS_P2;PMS_P1;PMS_P2;Temp;Humidity;BMP_temperature;BMP_pressure;BME280_temperature;BME280_humidity;BME280_pressure;Samples;Min_cycle;Max_cycle;Signal;HPM_P1;HPM_P2
2022/11/28 00:02:24;;;;;;;;;;;;;;;9.89;59.93;99516.41;4487169;32;20248;-82
2022/11/28 00:04:50;;;;;;;;;;;;;;;9.90;59.88;99513.72;4487306;32;19995;-82
2022/11/28 00:07:16;;;;;;;;;;;;;;;9.90;59.87;99518.13;4486025;32;19990;-82
2022/11/28 00:09:41;;;;;;;;;;;;;;;9.92;59.77;99521.56;4485790;32;20017;-82
2022/11/28 00:12:06;;;;;;;;;;;;;;;9.92;59.76;99522.41;4487104;32;19976;-82
2022/11/28 00:14:31;;;;;;;;;;;;;;;9.96;59.66;99524.00;4487052;32;19979;-82
2022/11/28 00:16:57;;;;;;;;;;;;;;;9.96;59.59;99523.13;4486951;32;19975;-82
2022/11/28 00:19:22;;;;;;;;;;;;;;;9.98;59.68;99522.16;4487112;32;19990;-82
2022/11/28 00:21:47;;;;;;;;;;;;;;;9.95;59.70;99517.03;4486972;32;19977;-82
2022/11/28 00:24:12;;;;;;;;;;;;;;;9.96;59.73;99520.50;4487389;32;19991;-82
2022/11/28 00:26:38;;;;;;;;;;;;;;;9.97;59.76;99517.81;4488879;32;19972;-82
2022/11/28 00:29:04;;;;;;;;;;;;;;;9.98;59.54;99516.88;4488837;31;19999;-82
2022/11/28 00:31:31;;;;;;;;;;;;;;;9.96;59.58;99521.34;4487693;32;20015;-82
2022/11/28 00:33:56;;;;;;;;;;;;;;;9.99;59.38;99520.41;4487532;32;19984;-81
2022/11/28 00:36:22;;;;;;;;;;;;;;;10.01;59.21;99524.66;4488866;31;20343;-81
2022/11/28 00:38:48;;;;;;;;;;;;;;;9.98;59.26;99516.03;4488901;31;19980;-82
2022/11/28 00:41:14;;;;;;;;;;;;;;;9.96;59.29;99529.25;4487621;32;20002;-82
2022/11/28 00:43:40;;;;;;;;;;;;;;;9.97;59.27;99524.88;4488809;31;20310;-82
2022/11/28 00:46:05;;;;;;;;;;;;;;;9.96;59.44;99524.00;4488721;31;19971;-82
2022/11/28 00:48:31;;;;;;;;;;;;;;;9.91;59.54;99523.34;4488748;31;20236;-82
2022/11/28 00:51:03;;;;;;;;;;;;;;;9.97;59.35;99519.59;4488717;31;20266;-81
2022/11/28 00:53:29;;;;;;;;;;;;;;;9.96;59.34;99524.00;4487635;32;20019;-82
2022/11/28 00:55:54;;;;;;;;;;;;;;;9.96;59.45;99526.63;4488667;32;20003;-82
2022/11/28 00:58:19;;;;;;;;;;;;;;;9.99;59.47;99531.78;4487177;32;20030;-82
2022/11/28 01:00:44;;;;;;;;;;;;;;;9.91;59.50;99525.09;4488307;32;19990;-82
2022/11/28 01:03:10;;;;;;;;;;;;;;;9.93;59.70;99526.75;4488395;32;20042;-82
2022/11/28 01:05:38;;;;;;;;;;;;;;;9.88;59.74;99533.97;4488310;31;20319;-82
2022/11/28 01:08:04;;;;;;;;;;;;;;;9.93;59.70;99526.75;4487151;32;19995;-83
2022/11/28 01:10:29;;;;;;;;;;;;;;;9.94;59.58;99528.47;4488129;32;20016;-83
2022/11/28 01:12:54;;;;;;;;;;;;;;;9.97;59.54;99530.13;4488328;31;20002;-82
2022/11/28 01:15:19;;;;;;;;;;;;;;;9.94;59.54;99520.56;4488215;32;20022;-82
2022/11/28 01:17:45;;;;;;;;;;;;;;;9.97;59.50;99512.56;4487103;32;19972;-82
2022/11/28 01:20:10;;;;;;;;;;;;;;;10.00;59.43;99511.56;4488111;32;19983;-82
2022/11/28 01:22:35;;;;;;;;;;;;;;;10.00;59.26;99509.78;4488175;31;19968;-82
2022/11/28 01:25:01;;;;;;;;;;;;;;;10.00;59.29;99509.78;4488072;32;19988;-81
2022/11/28 01:27:26;;;;;;;;;;;;;;;9.99;59.32;99512.50;4488281;32;19983;-81
2022/11/28 01:29:51;;;;;;;;;;;;;;;9.97;59.41;99514.34;4487035;32;20279;-81
2022/11/28 01:32:16;;;;;;;;;;;;;;;9.99;59.43;99510.72;4488187;32;19991;-81
2022/11/28 01:34:42;;;;;;;;;;;;;;;9.96;59.49;99509.97;4487762;32;19986;-83
2022/11/28 01:37:07;;;;;;;;;;;;;;;9.96;59.52;99508.19;4486612;32;20005;-82
2022/11/28 01:39:32;;;;;;;;;;;;;;;9.96;59.58;99502.94;4486870;32;20013;-82
2022/11/28 01:41:57;;;;;;;;;;;;;;;9.96;59.68;99502.94;4488232;32;19994;-81
2022/11/28 01:44:23;;;;;;;;;;;;;;;9.97;59.67;99502.03;4488032;32;19967;-80
2022/11/28 01:46:48;;;;;;;;;;;;;;;9.95;59.79;99503.88;4487998;32;20016;-81
2022/11/28 01:49:17;;;;;;;;;;;;;;;9.97;59.71;99494.12;4488040;32;19975;-81
2022/11/28 01:51:53;;;;;;;;;;;;;;;9.98;59.75;99485.28;4486724;32;20024;-81
2022/11/28 01:54:19;;;;;;;;;;;;;;;9.97;59.81;99480.13;4486942;32;19976;-81
2022/11/28 01:56:50;;;;;;;;;;;;;;;9.96;59.83;99481.88;4486774;32;19987;-81
2022/11/28 01:59:15;;;;;;;;;;;;;;;10.00;59.73;99477.34;4486974;32;19995;-81
2022/11/28 02:01:41;;;;;;;;;;;;;;;10.00;59.61;99477.34;4486992;32;20325;-81
2022/11/28 02:04:06;;;;;;;;;;;;;;;9.99;59.46;99468.59;4486796;32;19984;-81
2022/11/28 02:06:32;;;;;;;;;;;;;;;9.97;59.36;99464.31;4486801;32;19984;-81
2022/11/28 02:08:57;;;;;;;;;;;;;;;9.93;59.13;99474.13;4487919;32;20253;-81
2022/11/28 02:11:25;;;;;;;;;;;;;;;9.94;59.11;99467.91;4487758;32;19986;-81
2022/11/28 02:13:50;;;;;;;;;;;;;;;9.96;59.02;99458.19;4487869;32;19976;-81
2022/11/28 02:16:25;;;;;;;;;;;;;;;9.94;59.10;99462.66;4486596;32;19988;-82
2022/11/28 02:19:26;;;;;;;;;;;;;;;9.86;59.18;99458.66;4487841;32;20018;-82
2022/11/28 02:21:58;;;;;;;;;;;;;;;9.91;58.79;99461.91;4423786;32;19983;-81
2022/11/28 02:24:23;;;;;;;;;;;;;;;9.86;58.89;99462.13;4410978;32;20498;-82
2022/11/28 02:27:12;;;;;;;;;;;;;;;9.88;58.78;99451.53;4423477;32;20030;-81
2022/11/28 02:29:37;;;;;;;;;;;;;;;9.87;58.86;99465.59;4419224;32;20001;-82
2022/11/28 02:32:24;;;;;;;;;;;;;;;9.66;59.14;99455.06;4410637;32;19993;-81
2022/11/28 02:34:53;;;;;;;;;;;;;;;9.80;58.94;99465.00;4410469;32;20379;-81
2022/11/28 02:37:21;;;;;;;;;;;;;;;9.83;58.82;99449.06;4410554;32;20366;-81
2022/11/28 02:39:53;;;;;;;;;;;;;;;9.82;58.75;99450.00;4423501;32;20011;-81
2022/11/28 02:42:39;;;;;;;;;;;;;;;9.75;58.88;99454.66;4410651;32;19985;-81
2022/11/28 02:45:04;;;;;;;;;;;;;;;9.80;58.71;99446.59;4423448;32;19992;-82
2022/11/28 02:47:33;;;;;;;;;;;;;;;9.77;58.68;99444.94;4422515;32;20028;-81
2022/11/28 02:50:04;;;;;;;;;;;;;;;9.81;58.55;99446.53;4410598;32;20049;-81
2022/11/28 02:52:33;;;;;;;;;;;;;;;9.82;58.53;99442.97;4410560;32;19969;-81
2022/11/28 02:54:58;;;;;;;;;;;;;;;9.82;58.50;99442.13;4419729;32;19980;-80
2022/11/28 02:57:28;;;;;;;;;;;;;;;9.79;58.64;99447.50;4486436;32;20229;-81
2022/11/28 02:59:54;;;;;;;;;;;;;;;9.82;58.62;99434.22;4486397;32;20276;-81
2022/11/28 03:02:27;;;;;;;;;;;;;;;9.81;58.72;99438.63;4486378;32;19964;-80
2022/11/28 03:05:11;;;;;;;;;;;;;;;9.80;58.89;99436.91;4486342;32;20035;-82
2022/11/28 03:07:37;;;;;;;;;;;;;;;9.81;58.75;99435.13;4487832;31;19984;-82
2022/11/28 03:10:04;;;;;;;;;;;;;;;9.78;58.59;99437.91;4487486;31;20372;-81
2022/11/28 03:12:52;;;;;;;;;;;;;;;9.77;58.40;99434.44;4486350;32;20032;-81
2022/11/28 03:15:22;;;;;;;;;;;;;;;9.78;58.18;99425.59;4479231;32;20035;-81
2022/11/28 03:18:07;;;;;;;;;;;;;;;9.78;57.83;99427.38;4486617;32;19984;-81
2022/11/28 03:20:45;;;;;;;;;;;;;;;9.73;57.84;99430.19;4487316;32;20307;-81
2022/11/28 03:23:10;;;;;;;;;;;;;;;9.63;58.09;99427.06;4486457;32;19992;-82
2022/11/28 03:25:42;;;;;;;;;;;;;;;9.69;57.91;99425.97;4487551;32;19984;-83
2022/11/28 03:28:07;;;;;;;;;;;;;;;9.73;57.85;99416.19;4487342;31;20031;-82
2022/11/28 03:30:41;;;;;;;;;;;;;;;9.74;57.73;99417.91;4487224;32;19987;-83
2022/11/28 03:33:06;;;;;;;;;;;;;;;9.76;57.71;99409.03;4486214;32;19968;-83
2022/11/28 03:35:32;;;;;;;;;;;;;;;9.76;57.65;99414.28;4487047;32;19979;-83
2022/11/28 03:38:00;;;;;;;;;;;;;;;9.77;57.58;99400.22;4486127;32;20046;-83
2022/11/28 03:40:27;;;;;;;;;;;;;;;9.78;57.46;99395.81;4486180;32;20429;-83
2022/11/28 03:43:00;;;;;;;;;;;;;;;9.65;57.62;99395.44;4486095;32;20229;-83
2022/11/28 03:45:26;;;;;;;;;;;;;;;9.72;57.40;99389.03;4486096;32;19992;-83
2022/11/28 03:47:54;;;;;;;;;;;;;;;9.73;57.38;99382.81;4486074;32;20002;-83
2022/11/28 03:50:21;;;;;;;;;;;;;;;9.74;57.55;99375.81;4485980;32;19988;-83
2022/11/28 03:52:48;;;;;;;;;;;;;;;9.73;57.62;99371.44;4485926;32;19992;-82
2022/11/28 03:55:24;;;;;;;;;;;;;;;9.74;57.45;99366.13;4485941;32;20244;-83
2022/11/28 03:58:02;;;;;;;;;;;;;;;9.70;57.47;99371.59;4485989;32;20588;-82
2022/11/28 04:00:27;;;;;;;;;;;;;;;9.71;57.69;99366.25;4486138;32;20010;-83
2022/11/28 04:02:58;;;;;;;;;;;;;;;9.72;57.71;99359.22;4485840;32;19991;-81
2022/11/28 04:05:31;;;;;;;;;;;;;;;9.69;57.78;99357.56;4486924;32;20311;-81
2022/11/28 04:07:56;;;;;;;;;;;;;;;9.68;58.03;99361.13;4485946;32;20266;-81
2022/11/28 04:10:39;;;;;;;;;;;;;;;9.68;57.95;99361.13;4486750;32;19975;-80
2022/11/28 04:13:10;;;;;;;;;;;;;;;9.70;57.78;99363.72;4486849;31;20344;-81
2022/11/28 04:15:40;;;;;;;;;;;;;;;9.70;57.70;99361.06;4486824;32;19978;-80
2022/11/28 04:18:26;;;;;;;;;;;;;;;9.25;58.95;99358.47;4485601;32;19988;-80
2022/11/28 04:20:57;;;;;;;;;;;;;;;9.44;58.48;99360.34;4486811;31;20320;-82
2022/11/28 04:23:23;;;;;;;;;;;;;;;9.46;58.44;99363.78;4486659;31;19984;-82
2022/11/28 04:25:52;;;;;;;;;;;;;;;9.47;58.49;99347.09;4472450;32;20017;-82
2022/11/28 04:28:19;;;;;;;;;;;;;;;9.46;58.48;99348.00;4485555;32;19987;-83
2022/11/28 04:30:44;;;;;;;;;;;;;;;9.48;58.61;99346.16;4472180;32;20329;-83
2022/11/28 04:33:10;;;;;;;;;;;;;;;9.52;58.65;99342.50;4485491;32;20062;-83
2022/11/28 04:35:40;;;;;;;;;;;;;;;9.51;58.86;99350.44;4485158;32;20308;-83
2022/11/28 04:38:05;;;;;;;;;;;;;;;9.48;58.96;99346.16;4485384;32;19967;-82
2022/11/28 04:40:31;;;;;;;;;;;;;;;9.49;58.95;99341.78;4486378;32;20020;-83
2022/11/28 04:42:57;;;;;;;;;;;;;;;9.48;58.97;99342.69;4485253;32;19988;-83
2022/11/28 04:45:27;;;;;;;;;;;;;;;9.51;58.94;99353.09;4485203;32;19990;-83
2022/11/28 04:47:53;;;;;;;;;;;;;;;9.50;58.88;99346.09;4485214;32;19999;-82
2022/11/28 04:50:18;;;;;;;;;;;;;;;9.52;58.67;99354.78;4484971;32;19983;-81
2022/11/28 04:52:46;;;;;;;;;;;;;;;9.54;58.53;99350.31;4485157;32;20005;-81
2022/11/28 04:55:16;;;;;;;;;;;;;;;9.50;58.37;99344.31;4485129;32;19971;-82
2022/11/28 04:57:42;;;;;;;;;;;;;;;9.47;58.34;99341.84;4471877;32;20002;-83
2022/11/28 05:00:09;;;;;;;;;;;;;;;9.45;58.33;99336.63;4484916;32;20055;-82
2022/11/28 05:02:34;;;;;;;;;;;;;;;9.45;58.27;99333.16;4486216;31;19982;-82
2022/11/28 05:05:00;;;;;;;;;;;;;;;9.33;58.33;99336.25;4484889;32;20018;-81
2022/11/28 05:07:25;;;;;;;;;;;;;;;9.29;58.54;99342.56;4471666;32;19979;-81
2022/11/28 05:09:50;;;;;;;;;;;;;;;9.33;58.61;99345.03;4486150;32;20002;-83
2022/11/28 05:12:16;;;;;;;;;;;;;;;9.41;58.50;99347.34;4488181;32;20310;-83
2022/11/28 05:14:41;;;;;;;;;;;;;;;9.43;58.44;99348.13;4487171;32;20357;-83
2022/11/28 05:17:06;;;;;;;;;;;;;;;9.34;58.78;99346.72;4487057;32;19998;-83
2022/11/28 05:19:32;;;;;;;;;;;;;;;9.33;58.85;99349.41;4488292;31;19975;-83
2022/11/28 05:21:57;;;;;;;;;;;;;;;9.33;58.93;99352.91;4488223;32;19967;-83
2022/11/28 05:24:22;;;;;;;;;;;;;;;9.08;59.39;99339.03;4487002;32;20255;-83
2022/11/28 05:26:47;;;;;;;;;;;;;;;9.24;59.16;99351.50;4488215;31;19976;-83
2022/11/28 05:29:13;;;;;;;;;;;;;;;9.32;59.26;99350.34;4487097;32;20000;-83
2022/11/28 05:31:38;;;;;;;;;;;;;;;9.24;59.65;99348.88;4456441;31;1016231;-83
2022/11/28 05:34:03;;;;;;;;;;;;;;;8.91;60.22;99355.47;4486587;32;19976;-84
2022/11/28 05:36:28;;;;;;;;;;;;;;;9.22;59.68;99355.13;4488158;32;19986;-82
2022/11/28 05:38:54;;;;;;;;;;;;;;;9.22;59.45;99368.25;4488061;32;20029;-81
2022/11/28 05:41:20;;;;;;;;;;;;;;;9.00;59.88;99370.84;4486709;32;19963;-84
2022/11/28 05:43:45;;;;;;;;;;;;;;;9.11;59.54;99365.19;4486865;32;19983;-83
2022/11/28 05:46:10;;;;;;;;;;;;;;;9.12;59.42;99374.81;4488336;32;20333;-82
2022/11/28 05:48:35;;;;;;;;;;;;;;;9.04;59.57;99373.31;4488107;32;19993;-82
2022/11/28 05:51:02;;;;;;;;;;;;;;;9.13;59.36;99382.59;4486663;32;19976;-82
2022/11/28 05:53:28;;;;;;;;;;;;;;;9.22;59.07;99376.16;4488058;31;20027;-82
2022/11/28 05:55:53;;;;;;;;;;;;;;;9.18;59.00;99371.94;4486788;32;20307;-82
2022/11/28 05:58:18;;;;;;;;;;;;;;;9.22;59.01;99377.00;4488017;32;20020;-82
2022/11/28 06:00:43;;;;;;;;;;;;;;;9.22;58.98;99379.62;4487971;31;20235;-82
2022/11/28 06:03:09;;;;;;;;;;;;;;;9.24;58.96;99372.53;4486714;32;19980;-83
2022/11/28 06:05:36;;;;;;;;;;;;;;;9.26;58.88;99369.84;4487998;31;19983;-83
2022/11/28 06:08:02;;;;;;;;;;;;;;;9.27;59.04;99365.44;4487935;31;19991;-83
2022/11/28 06:10:27;;;;;;;;;;;;;;;9.29;59.21;99368.84;4486638;32;20008;-83
2022/11/28 06:12:53;;;;;;;;;;;;;;;9.25;59.27;99369.00;4487917;31;20304;-83
2022/11/28 06:15:18;;;;;;;;;;;;;;;9.29;59.54;99379.38;4487726;32;19968;-82
2022/11/28 06:17:43;;;;;;;;;;;;;;;9.33;59.45;99373.94;4486570;32;20051;-81
2022/11/28 06:20:08;;;;;;;;;;;;;;;9.36;59.21;99370.34;4487714;32;20252;-82
2022/11/28 06:22:34;;;;;;;;;;;;;;;9.30;59.02;99376.69;4486743;32;20020;-82
2022/11/28 06:24:59;;;;;;;;;;;;;;;9.31;59.02;99378.41;4487780;32;19987;-82
2022/11/28 06:27:24;;;;;;;;;;;;;;;9.37;58.85;99383.44;4487791;32;19972;-84
2022/11/28 06:29:49;;;;;;;;;;;;;;;9.38;58.84;99377.22;4486395;32;19991;-83
2022/11/28 06:32:15;;;;;;;;;;;;;;;9.38;58.80;99374.59;4487612;32;19964;-85
2022/11/28 06:34:40;;;;;;;;;;;;;;;9.40;58.77;99378.03;4487437;32;20022;-82
2022/11/28 06:37:05;;;;;;;;;;;;;;;9.42;58.51;99373.56;4487791;32;19985;-81
2022/11/28 06:39:31;;;;;;;;;;;;;;;9.41;58.39;99377.13;4487797;32;19990;-81
2022/11/28 06:41:56;;;;;;;;;;;;;;;9.36;58.44;99378.22;4487658;31;19964;-85
2022/11/28 06:44:22;;;;;;;;;;;;;;;9.40;58.57;99383.28;4487656;31;20032;-85
2022/11/28 06:46:47;;;;;;;;;;;;;;;9.42;58.45;99388.50;4487680;31;19998;-85
2022/11/28 06:49:12;;;;;;;;;;;;;;;9.44;58.24;99378.75;4487596;32;19971;-85
2022/11/28 06:51:39;;;;;;;;;;;;;;;9.44;58.27;99389.28;4487462;31;20262;-85
2022/11/28 06:54:05;;;;;;;;;;;;;;;9.47;58.23;99390.94;4473307;32;19998;-83
2022/11/28 06:56:30;;;;;;;;;;;;;;;9.47;58.32;99394.44;4473314;32;19984;-84
2022/11/28 06:58:56;;;;;;;;;;;;;;;9.38;58.40;99387.75;4487668;31;19990;-84
2022/11/28 07:01:22;;;;;;;;;;;;;;;9.40;58.17;99390.31;4487498;31;19998;-85
2022/11/28 07:03:47;;;;;;;;;;;;;;;9.42;58.08;99391.13;4486304;32;19976;-84
2022/11/28 07:06:14;;;;;;;;;;;;;;;9.36;57.85;99381.69;4486382;32;19980;-84
2022/11/28 07:08:39;;;;;;;;;;;;;;;9.37;57.83;99386.06;4486272;32;19983;-83
2022/11/28 07:11:21;;;;;;;;;;;;;;;9.41;57.76;99389.41;4487353;32;20304;-83
2022/11/28 07:13:47;;;;;;;;;;;;;;;9.40;57.40;99388.53;4486272;32;19975;-84
2022/11/28 07:16:14;;;;;;;;;;;;;;;9.29;57.56;99379.38;4486401;32;19983;-83
2022/11/28 07:18:39;;;;;;;;;;;;;;;9.29;57.58;99390.78;4473164;32;20330;-83
2022/11/28 07:21:04;;;;;;;;;;;;;;;9.27;57.69;99384.69;4487364;32;19975;-84
2022/11/28 07:23:30;;;;;;;;;;;;;;;9.27;57.77;99387.31;4486116;32;20284;-83
2022/11/28 07:25:59;;;;;;;;;;;;;;;9.29;57.40;99385.50;4486129;32;19992;-81
2022/11/28 07:28:24;;;;;;;;;;;;;;;9.19;57.44;99390.28;4487471;31;20043;-82
2022/11/28 07:30:56;;;;;;;;;;;;;;;9.19;57.37;99385.03;4487253;32;19986;-81
2022/11/28 07:33:22;;;;;;;;;;;;;;;9.20;57.60;99396.38;4487113;31;19995;-81
2022/11/28 07:35:47;;;;;;;;;;;;;;;9.24;57.91;99387.47;4486781;32;20304;-82
2022/11/28 07:38:12;;;;;;;;;;;;;;;9.34;57.70;99393.19;4487266;32;20357;-81
2022/11/28 07:40:37;;;;;;;;;;;;;;;9.39;57.72;99386.84;4487328;32;19987;-83
2022/11/28 07:43:03;;;;;;;;;;;;;;;9.36;57.76;99383.47;4487145;32;20318;-84
2022/11/28 07:45:28;;;;;;;;;;;;;;;9.35;57.40;99379.12;4487072;32;19983;-83
2022/11/28 07:47:53;;;;;;;;;;;;;;;9.40;57.40;99377.19;4487167;32;19978;-83
2022/11/28 07:50:18;;;;;;;;;;;;;;;9.34;57.14;99377.44;4485836;32;19994;-83
2022/11/28 07:52:44;;;;;;;;;;;;;;;9.43;56.73;99370.03;4487305;32;20213;-82
2022/11/28 07:55:09;;;;;;;;;;;;;;;9.51;56.19;99366.22;4487055;32;19984;-82
2022/11/28 07:57:34;;;;;;;;;;;;;;;9.27;56.35;99360.19;4486876;32;19994;-83
2022/11/28 07:59:59;;;;;;;;;;;;;;;9.43;55.88;99359.50;4487104;31;20011;-83
2022/11/28 08:02:25;;;;;;;;;;;;;;;9.52;55.68;99362.66;4485591;32;20316;-80
2022/11/28 08:04:51;;;;;;;;;;;;;;;9.56;55.65;99357.25;4487055;31;20331;-81
2022/11/28 08:07:16;;;;;;;;;;;;;;;9.57;55.04;99358.09;4487027;32;19976;-84
2022/11/28 08:09:41;;;;;;;;;;;;;;;9.53;55.25;99354.72;4486768;32;20002;-81
2022/11/28 08:12:07;;;;;;;;;;;;;;;9.48;55.15;99351.41;4486865;32;19987;-79
2022/11/28 08:14:32;;;;;;;;;;;;;;;9.49;55.09;99362.81;4486841;32;19990;-79
2022/11/28 08:16:57;;;;;;;;;;;;;;;9.46;55.31;99361.13;4486820;32;19992;-78
2022/11/28 08:19:22;;;;;;;;;;;;;;;9.48;55.33;99358.47;4486798;32;19968;-80
2022/11/28 08:21:48;;;;;;;;;;;;;;;9.56;55.22;99362.50;4485622;32;19983;-80
2022/11/28 08:24:13;;;;;;;;;;;;;;;9.59;55.48;99356.25;4486851;32;19992;-80
2022/11/28 08:26:39;;;;;;;;;;;;;;;9.64;55.27;99360.41;4486940;31;19968;-80
2022/11/28 08:29:04;;;;;;;;;;;;;;;9.72;54.60;99357.44;4485654;32;20012;-80
2022/11/28 08:31:30;;;;;;;;;;;;;;;9.74;54.55;99365.28;4486747;32;19971;-80
2022/11/28 08:33:56;;;;;;;;;;;;;;;9.81;54.05;99362.34;4486737;31;20059;-78
2022/11/28 08:36:21;;;;;;;;;;;;;;;9.92;53.53;99372.38;4486915;31;20343;-81
2022/11/28 08:38:47;;;;;;;;;;;;;;;9.94;53.05;99365.28;4483024;31;20017;-80
2022/11/28 08:41:16;;;;;;;;;;;;;;;9.95;52.26;99379.31;4479182;31;20048;-78
2022/11/28 08:43:41;;;;;;;;;;;;;;;9.88;51.86;99369.97;4481800;31;19991;-80
2022/11/28 08:46:11;;;;;;;;;;;;;;;9.89;51.78;99371.66;4470796;32;19995;-80
2022/11/28 08:48:36;;;;;;;;;;;;;;;9.85;51.35;99378.84;4469394;32;20328;-80
2022/11/28 08:51:02;;;;;;;;;;;;;;;9.89;51.46;99367.28;4472750;32;19989;-80
2022/11/28 08:53:27;;;;;;;;;;;;;;;9.93;50.00;99370.59;4468439;32;20347;-80
2022/11/28 08:55:53;;;;;;;;;;;;;;;9.94;49.94;99369.69;4483888;31;20012;-80
2022/11/28 08:58:18;;;;;;;;;;;;;;;9.86;50.02;99375.28;4481637;31;20389;-79
2022/11/28 09:00:43;;;;;;;;;;;;;;;9.93;50.08;99374.13;4482921;31;20452;-78
2022/11/28 09:03:15;;;;;;;;;;;;;;;9.95;50.29;99369.63;4480334;31;20014;-80
2022/11/28 09:05:44;;;;;;;;;;;;;;;10.01;50.43;99372.00;4472450;31;20037;-80
2022/11/28 09:08:09;;;;;;;;;;;;;;;10.01;50.25;99360.63;4483327;31;19984;-80
2022/11/28 09:10:35;;;;;;;;;;;;;;;10.08;49.78;99364.69;4468004;31;20020;-80
2022/11/28 09:13:00;;;;;;;;;;;;;;;10.12;49.39;99357.50;4470918;32;19979;-80
2022/11/28 09:15:26;;;;;;;;;;;;;;;10.13;49.01;99354.81;4481201;31;20110;-80
2022/11/28 09:17:51;;;;;;;;;;;;;;;10.21;48.78;99359.75;4483645;31;20305;-80
2022/11/28 09:20:17;;;;;;;;;;;;;;;10.18;48.21;99352.00;4481267;31;19975;-79
2022/11/28 09:22:42;;;;;;;;;;;;;;;10.21;48.52;99344.78;4470396;32;20024;-79
2022/11/28 09:25:07;;;;;;;;;;;;;;;10.23;47.90;99347.38;4482213;31;19983;-82
2022/11/28 09:27:32;;;;;;;;;;;;;;;10.25;48.03;99348.16;4476216;32;20016;-78
2022/11/28 09:29:58;;;;;;;;;;;;;;;10.26;48.03;99347.25;4482779;31;20220;-79
2022/11/28 09:32:23;;;;;;;;;;;;;;;10.29;48.02;99344.47;4481578;31;20011;-78
2022/11/28 09:34:50;;;;;;;;;;;;;;;10.22;48.29;99343.03;4483605;31;20009;-79
2022/11/28 09:37:15;;;;;;;;;;;;;;;10.20;48.21;99340.47;4481433;31;20006;-78
2022/11/28 09:39:41;;;;;;;;;;;;;;;10.22;48.51;99345.66;4473961;32;20015;-79
2022/11/28 09:42:40;;;;;;;;;;;;;;;10.22;48.66;99343.88;4481119;31;20014;-79
2022/11/28 09:45:09;;;;;;;;;;;;;;;10.27;48.82;99342.81;4408785;32;19993;-79
2022/11/28 09:47:35;;;;;;;;;;;;;;;10.31;48.89;99340.00;4395958;32;19985;-79
2022/11/28 09:50:02;;;;;;;;;;;;;;;10.27;49.10;99338.41;4379579;32;20025;-79
2022/11/28 09:52:28;;;;;;;;;;;;;;;10.22;49.30;99327.25;4405951;32;20028;-79
2022/11/28 09:54:56;;;;;;;;;;;;;;;9.95;49.45;99331.94;4402564;32;20036;-79
2022/11/28 09:57:40;;;;;;;;;;;;;;;10.02;49.26;99318.44;4407786;32;20018;-79
2022/11/28 10:00:10;;;;;;;;;;;;;;;10.04;48.96;99316.59;4407168;32;20375;-79
2022/11/28 10:02:38;;;;;;;;;;;;;;;10.07;49.29;99317.38;4398941;32;20131;-80
2022/11/28 10:05:12;;;;;;;;;;;;;;;10.14;49.15;99308.28;4401808;32;20090;-79
2022/11/28 10:07:42;;;;;;;;;;;;;;;10.21;49.20;99309.72;4406483;32;19990;-78
2022/11/28 10:10:08;;;;;;;;;;;;;;;10.20;49.29;99314.13;4397389;32;20387;-78
2022/11/28 10:12:36;;;;;;;;;;;;;;;10.23;48.55;99307.87;4407055;32;20024;-79
2022/11/28 10:15:02;;;;;;;;;;;;;;;10.28;48.01;99305.91;4406614;32;20003;-77
2022/11/28 10:17:27;;;;;;;;;;;;;;;10.37;47.97;99299.37;4391797;32;20047;-81
2022/11/28 10:19:58;;;;;;;;;;;;;;;10.46;47.59;99301.59;4417628;31;20043;-81
2022/11/28 10:22:27;;;;;;;;;;;;;;;10.42;47.14;99300.03;4470888;32;19967;-81
2022/11/28 10:24:53;;;;;;;;;;;;;;;10.42;47.22;99303.50;4481615;31;19979;-79
2022/11/28 10:27:19;;;;;;;;;;;;;;;10.54;47.31;99304.72;4483384;31;20558;-78
2022/11/28 10:29:45;;;;;;;;;;;;;;;10.53;47.12;99292.50;4461864;31;20034;-79
2022/11/28 10:32:13;;;;;;;;;;;;;;;10.53;46.99;99297.75;4476275;31;20040;-78
2022/11/28 10:35:05;;;;;;;;;;;;;;;10.53;47.08;99304.81;4465630;31;19976;-79
2022/11/28 10:37:31;;;;;;;;;;;;;;;10.40;46.98;99294.81;4480399;31;20320;-80
2022/11/28 10:39:57;;;;;;;;;;;;;;;10.43;46.55;99293.84;4482597;31;19981;-79
2022/11/28 10:42:31;;;;;;;;;;;;;;;10.59;46.34;99288.72;4471571;31;19992;-79
2022/11/28 10:45:05;;;;;;;;;;;;;;;10.68;46.27;99288.31;4469918;31;20035;-79
2022/11/28 10:47:49;;;;;;;;;;;;;;;10.66;45.97;99276.94;4480932;31;20349;-80
2022/11/28 10:50:44;;;;;;;;;;;;;;;10.65;45.80;99272.62;4482488;31;19988;-79
2022/11/28 10:53:19;;;;;;;;;;;;;;;10.70;45.91;99273.28;4468281;31;19998;-81
2022/11/28 10:55:49;;;;;;;;;;;;;;;10.49;46.93;99271.63;4469757;31;19980;-80
2022/11/28 10:58:17;;;;;;;;;;;;;;;10.66;47.01;99270.84;4482601;31;19956;-79
2022/11/28 11:00:44;;;;;;;;;;;;;;;10.75;46.37;99271.25;4468099;31;20377;-77
2022/11/28 11:03:10;;;;;;;;;;;;;;;10.87;46.13;99263.69;4469866;32;19987;-79
2022/11/28 11:05:35;;;;;;;;;;;;;;;10.74;46.86;99252.88;4469633;31;19971;-80
2022/11/28 11:08:04;;;;;;;;;;;;;;;10.48;47.08;99260.22;4468906;31;20046;-80
2022/11/28 11:10:32;;;;;;;;;;;;;;;10.60;46.62;99256.16;4481991;31;20006;-80
2022/11/28 11:12:57;;;;;;;;;;;;;;;10.71;46.78;99253.87;4480948;31;20298;-79
2022/11/28 11:15:29;;;;;;;;;;;;;;;10.61;46.80;99261.37;4482719;31;19972;-78
2022/11/28 11:17:55;;;;;;;;;;;;;;;10.71;46.62;99253.87;4467795;31;20028;-79
2022/11/28 11:20:34;;;;;;;;;;;;;;;10.73;46.73;99252.03;4468390;32;19992;-81
2022/11/28 11:23:00;;;;;;;;;;;;;;;10.75;46.90;99249.31;4480860;31;20755;-80
2022/11/28 11:25:27;;;;;;;;;;;;;;;10.74;47.00;99258.12;4471916;32;19961;-79
2022/11/28 11:27:58;;;;;;;;;;;;;;;10.65;47.07;99254.19;4469180;31;20009;-78
2022/11/28 11:30:29;;;;;;;;;;;;;;;10.66;47.10;99258.50;4468301;32;19987;-79
2022/11/28 11:32:55;;;;;;;;;;;;;;;10.66;47.19;99255.88;4471732;31;19996;-79
2022/11/28 11:35:24;;;;;;;;;;;;;;;10.65;47.00;99253.34;4479802;31;19980;-82
2022/11/28 11:37:50;;;;;;;;;;;;;;;10.59;47.08;99250.03;4485986;31;20271;-81
2022/11/28 11:40:21;;;;;;;;;;;;;;;10.55;47.41;99250.28;4466999;32;20035;-80
2022/11/28 11:42:54;;;;;;;;;;;;;;;10.52;47.71;99253.03;4485637;31;20018;-79
2022/11/28 11:45:24;;;;;;;;;;;;;;;10.44;47.91;99250.75;4475038;31;19987;-79
2022/11/28 11:47:49;;;;;;;;;;;;;;;10.35;47.98;99249.44;4481188;31;20053;-79
2022/11/28 11:50:19;;;;;;;;;;;;;;;10.29;48.08;99260.19;4469743;32;20601;-79
2022/11/28 11:52:58;;;;;;;;;;;;;;;10.33;47.88;99253.87;4467074;32;19991;-79
2022/11/28 11:55:24;;;;;;;;;;;;;;;10.35;47.47;99251.19;4475470;31;19976;-78
2022/11/28 11:57:50;;;;;;;;;;;;;;;10.34;47.33;99249.50;4479609;31;20030;-78
2022/11/28 12:00:17;;;;;;;;;;;;;;;10.36;47.70;99245.84;4459023;31;20035;-79
2022/11/28 12:02:44;;;;;;;;;;;;;;;10.30;47.83;99243.50;4470134;31;19996;-78
2022/11/28 12:05:10;;;;;;;;;;;;;;;10.23;48.09;99242.03;4470277;31;20018;-77
2022/11/28 12:07:37;;;;;;;;;;;;;;;10.22;48.30;99237.72;4482713;31;20340;-78
2022/11/28 12:10:02;;;;;;;;;;;;;;;10.22;48.42;99248.25;4466347;31;19995;-79
2022/11/28 12:12:31;;;;;;;;;;;;;;;10.20;48.62;99242.19;4470782;32;19999;-78
2022/11/28 12:14:56;;;;;;;;;;;;;;;10.18;48.65;99238.78;4467582;32;20006;-79
2022/11/28 12:17:21;;;;;;;;;;;;;;;10.14;48.93;99237.19;4472097;32;20582;-79
2022/11/28 12:19:46;;;;;;;;;;;;;;;10.13;48.57;99232.88;4479839;31;20014;-76
2022/11/28 12:22:18;;;;;;;;;;;;;;;10.10;48.66;99235.62;4483936;31;20015;-76
2022/11/28 12:24:46;;;;;;;;;;;;;;;10.10;48.29;99231.25;4469475;32;20042;-76
2022/11/28 12:27:24;;;;;;;;;;;;;;;10.09;48.14;99224.25;4469692;31;20002;-77
2022/11/28 12:30:07;;;;;;;;;;;;;;;10.13;47.91;99222.34;4470530;31;20020;-77
2022/11/28 12:32:45;;;;;;;;;;;;;;;10.10;47.54;99223.34;4481651;31;20280;-77
2022/11/28 12:35:19;;;;;;;;;;;;;;;9.97;47.82;99222.19;4483963;31;19972;-76
2022/11/28 12:37:47;;;;;;;;;;;;;;;10.01;47.78;99219.34;4482760;31;20244;-80
2022/11/28 12:40:18;;;;;;;;;;;;;;;10.02;47.77;99225.44;4482927;31;20033;-80
2022/11/28 12:42:50;;;;;;;;;;;;;;;10.08;47.80;99216.41;4473621;32;20002;-78
2022/11/28 12:45:28;;;;;;;;;;;;;;;10.04;47.64;99219.22;4481989;31;19997;-79
2022/11/28 12:47:57;;;;;;;;;;;;;;;10.08;47.64;99219.06;4484287;31;20011;-79
2022/11/28 12:50:25;;;;;;;;;;;;;;;10.10;47.79;99219.84;4469258;32;20011;-78
2022/11/28 12:52:59;;;;;;;;;;;;;;;10.07;47.81;99220.84;4483909;31;20350;-79
2022/11/28 12:55:27;;;;;;;;;;;;;;;10.14;47.66;99214.38;4483571;31;20323;-84
2022/11/28 12:57:53;;;;;;;;;;;;;;;10.14;47.93;99211.75;4482020;31;20049;-82